1286-й км

Карта отелей и гостиниц, располагающихся рядом с аэропортом 1286-й км :

1286-й км Республика Коми 62° 10' 19.0812" N, 49° 44' 32.5788" E
1286-й км Республика Коми 62° 10' 19.0812" N, 49° 44' 32.5788" E
Код аэродрома ИКАО
HF0V
Код аэродрома RU
ХФ0Ж
Координаты
N62.17197° E049.74238°
Превышение над уровнем моря
132
Основная полоса
04/22
Курс магнитный
040,7/220,7
Длина основной ВПП
25
Ширина основной ВПП
20
Покрытие основной ВПП
Твёрдое (бетон)
Освещение ВПП
Нет
Тип: 
Вертодром
Класс аэродрома: 
Принадлежность: 
ГА
Статус: 
Действующий
Сайт: 
E-mail аэродрома: 
Страна: 
Россия
Регион: 
Республика Коми
Город: 
Дополнительная информация: 
Оператор: нет данных.

Найти трансфер

С помощью этой формы Вы можете найти трансфер из аэропорта 1286-й км в город, аэропорт или вокзал:

Карта места

Javascript is required to view this map.

Погода в аэропортах:

Авиационная погода в Угольном

Регион: 
Погода METAR: 
UHMA 130900Z 34006MPS 3800 -SN DRSN SCT020 BKN030 BKN045 M12/M14 Q1008 R01/////// NOSIG RMK TDZ R01/34006G07MPS END R01/34004G07MPS QFE753/1004
Время наблюдения
2021-04-13T09:00:00Z
Температура C
-12.0
Точка росы
-14.0
Направление ветра
340
Скорость ветра (узлы)
12
Метео видимость
2.36
Явления погоды
-SN DRSN
Условия полета
IFR
Аэропорт подробнее: 

Авиационная погода в Полярном

Регион: 
Погода METAR: 
UERP 130900Z 18003G08MPS 2300 -SHSN BKN014CB OVC100 M02/M04 Q0995 R17/492040 NOSIG RMK QFE702
Время наблюдения
2021-04-13T09:00:00Z
Температура C
-2.0
Точка росы
-4.0
Направление ветра
180
Скорость ветра (узлы)
6
Метео видимость
1.43
Явления погоды
-SHSN
Условия полета
IFR
Аэропорт подробнее: 

Авиационная погода в Нальчике

Регион: 
Погода METAR: 
URMN 130900Z 09002MPS 9999 -SHRA BKN008 BKN017CB 09/07 Q1021 R24/210155 NOSIG RMK MT OBSC QFE729
Время наблюдения
2021-04-13T09:00:00Z
Температура C
9.0
Точка росы
7.0
Направление ветра
90
Скорость ветра (узлы)
4
Метео видимость
6.21
Явления погоды
-SHRA
Условия полета
IFR
Аэропорт подробнее: 

Авиационная погода в Елизово

Регион: 
Погода METAR: 
UHPP 130900Z 31001MPS 9000 -SHSNRA FEW007 BKN040CB 00/00 Q1015 R16R/290155 NOSIG RMK QFE758/1011
Время наблюдения
2021-04-13T09:00:00Z
Температура C
0.0
Точка росы
0.0
Направление ветра
310
Скорость ветра (узлы)
2
Метео видимость
5.59
Явления погоды
-SHSN -SHRA
Условия полета
VFR
Аэропорт подробнее: